createdAt,value
2018-09-09T00:03:01.243Z,99.90
2018-09-09T00:07:44.892Z,99.90
2018-09-09T00:12:28.527Z,99.90
2018-09-09T00:17:12.247Z,99.90
2018-09-09T00:21:56.017Z,99.90
2018-09-09T00:26:39.873Z,99.90
2018-09-09T00:31:23.546Z,99.90
2018-09-09T00:36:07.280Z,99.90
2018-09-09T00:40:51.118Z,99.90
2018-09-09T00:45:34.900Z,99.90
2018-09-09T00:50:23.974Z,99.90
2018-09-09T00:55:07.654Z,99.90
2018-09-09T00:59:51.434Z,99.90
2018-09-09T01:04:35.147Z,99.90
2018-09-09T01:09:19.024Z,99.90
2018-09-09T01:14:02.655Z,99.90
2018-09-09T01:18:47.115Z,99.90
2018-09-09T01:23:30.793Z,99.90
2018-09-09T01:28:14.428Z,99.90
2018-09-09T01:32:58.159Z,99.90
2018-09-09T01:37:41.869Z,99.90
2018-09-09T01:42:26.066Z,99.90
2018-09-09T01:47:09.756Z,99.90
2018-09-09T01:51:53.598Z,99.90
2018-09-09T01:56:37.189Z,99.90
2018-09-09T02:01:20.865Z,99.90
2018-09-09T02:06:04.511Z,99.90
2018-09-09T02:10:48.307Z,99.90
2018-09-09T02:15:32.044Z,99.90
2018-09-09T02:20:15.955Z,99.90
2018-09-09T02:24:59.865Z,99.90
2018-09-09T02:29:43.625Z,99.90
2018-09-09T02:34:27.255Z,99.90
2018-09-09T02:39:11.419Z,99.90
2018-09-09T02:43:55.145Z,99.90
2018-09-09T02:48:39.534Z,99.90
2018-09-09T02:53:23.239Z,99.90
2018-09-09T02:58:07.061Z,99.90
2018-09-09T03:02:50.833Z,99.90
2018-09-09T03:07:34.599Z,99.90
2018-09-09T03:12:18.317Z,99.90
2018-09-09T03:17:02.822Z,99.90
2018-09-09T03:21:46.483Z,99.90
2018-09-09T03:26:30.183Z,99.90
2018-09-09T03:31:14.009Z,99.90
2018-09-09T03:35:57.802Z,99.90
2018-09-09T03:40:41.649Z,99.90
2018-09-09T03:45:25.468Z,99.90
2018-09-09T03:50:09.320Z,99.90
2018-09-09T03:54:53.081Z,99.90
2018-09-09T03:59:36.818Z,99.90
2018-09-09T04:04:20.593Z,99.90
2018-09-09T04:09:05.332Z,99.90
2018-09-09T04:13:49.133Z,99.90
2018-09-09T04:18:32.844Z,99.90
2018-09-09T04:23:16.664Z,99.90
2018-09-09T04:28:00.560Z,99.90
2018-09-09T04:32:44.216Z,99.90
2018-09-09T04:37:28.203Z,99.90
2018-09-09T04:42:12.796Z,99.90
2018-09-09T04:46:56.482Z,99.90
2018-09-09T04:51:40.327Z,99.90
2018-09-09T04:56:24.156Z,99.90
2018-09-09T05:01:08.456Z,99.90
2018-09-09T05:05:52.330Z,99.90
2018-09-09T05:10:36.170Z,99.90
2018-09-09T05:15:20.191Z,99.90
2018-09-09T05:20:04.271Z,99.90
2018-09-09T05:24:48.070Z,99.90
2018-09-09T05:29:31.977Z,99.90
2018-09-09T05:34:15.698Z,99.90
2018-09-09T05:39:00.086Z,99.90
2018-09-09T05:43:43.917Z,99.90
2018-09-09T05:48:27.860Z,99.90
2018-09-09T05:53:11.774Z,99.90
2018-09-09T05:57:55.466Z,99.90
2018-09-09T06:02:39.174Z,99.90
2018-09-09T06:07:23.718Z,99.90
2018-09-09T06:12:07.637Z,99.90
2018-09-09T06:16:51.435Z,99.90
2018-09-09T06:21:35.271Z,99.90
2018-09-09T06:26:19.140Z,99.90
2018-09-09T06:31:03.011Z,99.90
2018-09-09T06:35:46.721Z,99.90
2018-09-09T06:40:30.484Z,99.90
2018-09-09T06:45:14.608Z,99.90
2018-09-09T06:49:58.416Z,99.90
2018-09-09T06:54:42.246Z,99.90
2018-09-09T06:59:26.946Z,99.90
2018-09-09T07:04:10.868Z,99.90
2018-09-09T07:08:54.525Z,99.90
2018-09-09T07:13:38.234Z,99.90
2018-09-09T07:18:22.160Z,99.90
2018-09-09T07:23:06.872Z,99.90
2018-09-09T07:27:51.262Z,99.90
2018-09-09T07:32:36.151Z,99.90
2018-09-09T07:37:20.047Z,99.90
2018-09-09T07:42:04.311Z,99.90
2018-09-09T07:46:48.086Z,99.90
2018-09-09T07:51:32.727Z,99.90
2018-09-09T07:56:16.528Z,99.90
2018-09-09T08:01:00.439Z,99.90
2018-09-09T08:05:45.524Z,98.90
2018-09-09T08:10:29.383Z,96.10
2018-09-09T08:15:13.059Z,96.10
2018-09-09T08:19:57.040Z,93.70
2018-09-09T08:24:41.070Z,93.60
2018-09-09T08:29:25.136Z,94.20
2018-09-09T08:34:09.585Z,93.80
2018-09-09T08:38:53.617Z,93.80
2018-09-09T08:43:37.548Z,95.60
2018-09-09T08:48:21.420Z,94.10
2018-09-09T08:53:06.187Z,93.60
2018-09-09T08:57:50.400Z,94.90
2018-09-09T09:02:34.403Z,93.90
2018-09-09T09:07:18.214Z,92.90
2018-09-09T09:12:06.276Z,92.80
2018-09-09T09:16:50.162Z,92.30
2018-09-09T09:21:34.116Z,91.40
2018-09-09T09:26:18.412Z,91.60
2018-09-09T09:31:02.588Z,90.70
2018-09-09T09:35:50.035Z,89.70
2018-09-09T09:40:38.850Z,89.50
2018-09-09T09:45:23.188Z,85.30
2018-09-09T09:50:25.355Z,80.20
2018-09-09T09:55:12.276Z,72.80
2018-09-09T10:05:16.947Z,70.40
2018-09-09T10:10:02.379Z,71.90
2018-09-09T10:14:46.514Z,63.20
2018-09-09T10:24:35.671Z,69.00
2018-09-09T10:29:19.605Z,60.50
2018-09-09T10:34:03.306Z,61.00
2018-09-09T10:38:49.221Z,56.80
2018-09-09T10:43:33.707Z,57.40
2018-09-09T10:48:18.325Z,57.80
2018-09-09T10:53:02.490Z,57.20
2018-09-09T10:57:46.846Z,56.60
2018-09-09T11:02:39.989Z,58.70
2018-09-09T11:07:24.634Z,56.40
2018-09-09T11:12:10.190Z,55.40
2018-09-09T11:16:54.466Z,54.20
2018-09-09T11:21:38.505Z,55.00
2018-09-09T11:26:30.827Z,55.20
2018-09-09T11:36:22.381Z,56.70
2018-09-09T11:41:06.555Z,56.00
2018-09-09T11:45:50.308Z,52.20
2018-09-09T11:50:34.293Z,54.80
2018-09-09T12:00:37.281Z,55.50
2018-09-09T12:05:21.279Z,52.70
2018-09-09T12:10:08.425Z,53.70
2018-09-09T12:14:55.277Z,53.80
2018-09-09T12:19:43.493Z,54.60
2018-09-09T12:24:27.382Z,55.80
2018-09-09T12:29:11.316Z,56.70
2018-09-09T12:33:55.059Z,56.50
2018-09-09T12:38:38.955Z,56.00
2018-09-09T12:43:28.587Z,56.10
2018-09-09T12:48:19.161Z,56.90
2018-09-09T12:53:02.871Z,57.30
2018-09-09T12:57:55.647Z,56.70
2018-09-09T13:02:39.342Z,58.30
2018-09-09T13:07:22.979Z,58.20
2018-09-09T13:12:06.829Z,58.10
2018-09-09T13:16:53.340Z,59.60
2018-09-09T13:21:37.493Z,59.50
2018-09-09T13:26:21.674Z,59.20
2018-09-09T13:31:05.525Z,60.70
2018-09-09T13:35:49.707Z,59.80
2018-09-09T13:40:33.849Z,60.00
2018-09-09T13:45:17.685Z,60.70
2018-09-09T13:50:01.889Z,61.00
2018-09-09T13:54:46.548Z,59.60
2018-09-09T13:59:30.859Z,60.70
2018-09-09T14:04:15.162Z,61.40
2018-09-09T14:08:59.597Z,59.30
2018-09-09T14:13:43.534Z,59.90
2018-09-09T14:18:27.367Z,57.60
2018-09-09T14:23:11.094Z,57.40
2018-09-09T14:27:54.878Z,56.60
2018-09-09T14:32:38.712Z,56.00
2018-09-09T14:37:22.726Z,55.60
2018-09-09T14:42:06.951Z,55.20
2018-09-09T14:46:51.104Z,53.90
2018-09-09T14:51:35.137Z,53.60
2018-09-09T14:56:19.146Z,53.30
2018-09-09T15:01:04.497Z,53.40
2018-09-09T15:05:48.968Z,54.30
2018-09-09T15:10:32.959Z,53.50
2018-09-09T15:15:17.316Z,54.40
2018-09-09T15:20:01.333Z,54.70
2018-09-09T15:24:45.173Z,57.30
2018-09-09T15:29:29.209Z,56.00
2018-09-09T15:34:13.043Z,57.40
2018-09-09T15:38:56.849Z,57.90
2018-09-09T15:43:40.936Z,58.50
2018-09-09T15:48:24.805Z,58.70
2018-09-09T15:53:08.892Z,58.70
2018-09-09T15:57:53.305Z,57.20
2018-09-09T16:02:37.245Z,58.10
2018-09-09T16:07:21.293Z,57.30
2018-09-09T16:12:05.988Z,57.80
2018-09-09T16:16:49.806Z,58.70
2018-09-09T16:21:33.514Z,60.20
2018-09-09T16:26:17.356Z,61.70
2018-09-09T16:31:02.368Z,61.80
2018-09-09T16:35:46.328Z,64.00
2018-09-09T16:40:30.213Z,67.10
2018-09-09T16:45:14.212Z,66.40
2018-09-09T16:49:58.236Z,67.50
2018-09-09T16:54:42.398Z,69.30
2018-09-09T16:59:26.128Z,71.00
2018-09-09T17:04:09.805Z,70.80
2018-09-09T17:08:54.315Z,74.50
2018-09-09T17:13:38.137Z,72.70
2018-09-09T17:25:19.654Z,75.50
2018-09-09T17:30:03.672Z,76.80
2018-09-09T17:34:47.960Z,78.40
2018-09-09T17:39:31.733Z,80.20
2018-09-09T17:44:16.601Z,82.30
2018-09-09T17:49:00.606Z,84.40
2018-09-09T17:53:55.003Z,87.30
2018-09-09T17:58:38.963Z,90.30
2018-09-09T18:03:26.805Z,91.90
2018-09-09T18:08:11.866Z,93.00
2018-09-09T18:12:55.773Z,94.00
2018-09-09T18:17:39.709Z,95.20
2018-09-09T18:22:23.672Z,95.70
2018-09-09T18:27:07.720Z,96.40
2018-09-09T18:31:51.929Z,97.40
2018-09-09T18:36:44.887Z,98.50
2018-09-09T18:41:29.322Z,99.20
2018-09-09T18:46:13.943Z,99.90
2018-09-09T18:51:00.046Z,99.90
2018-09-09T18:55:44.269Z,97.70
2018-09-09T19:00:28.559Z,95.90
2018-09-09T19:05:13.775Z,95.20
2018-09-09T19:09:57.625Z,95.10
2018-09-09T19:14:42.135Z,95.30
2018-09-09T19:19:27.434Z,95.60
2018-09-09T19:24:11.383Z,95.90
2018-09-09T19:28:55.296Z,95.40
2018-09-09T19:33:39.348Z,95.20
2018-09-09T19:38:23.306Z,94.60
2018-09-09T19:43:07.508Z,94.30
2018-09-09T19:47:51.473Z,94.20
2018-09-09T19:52:36.396Z,94.10
2018-09-09T19:57:20.864Z,94.00
2018-09-09T20:02:04.980Z,94.10
2018-09-09T20:06:49.477Z,94.30
2018-09-09T20:11:39.564Z,94.50
2018-09-09T20:16:23.390Z,94.90
2018-09-09T20:21:12.494Z,95.00
2018-09-09T20:25:56.975Z,94.90
2018-09-09T20:30:41.588Z,94.90
2018-09-09T20:35:27.185Z,94.90
2018-09-09T20:40:10.837Z,95.00
2018-09-09T20:44:55.048Z,95.00
2018-09-09T20:49:39.305Z,95.10
2018-09-09T20:54:23.126Z,95.10
2018-09-09T20:59:07.392Z,95.40
2018-09-09T21:03:51.648Z,96.20
2018-09-09T21:08:35.863Z,96.30
2018-09-09T21:13:19.666Z,96.90
2018-09-09T21:18:03.436Z,96.60
2018-09-09T21:22:47.465Z,96.90
2018-09-09T21:27:31.285Z,96.90
2018-09-09T21:32:15.280Z,96.90
2018-09-09T21:36:59.404Z,96.40
2018-09-09T21:41:43.294Z,96.40
2018-09-09T21:46:27.120Z,96.90
2018-09-09T21:51:11.077Z,97.20
2018-09-09T21:55:55.211Z,97.70
2018-09-09T22:02:45.308Z,98.30
2018-09-09T22:07:29.142Z,99.00
2018-09-09T22:12:13.525Z,99.90
2018-09-09T22:16:57.424Z,99.90
2018-09-09T22:21:41.588Z,99.90
2018-09-09T22:26:25.378Z,99.90
2018-09-09T22:31:09.123Z,99.90
2018-09-09T22:35:52.871Z,99.90
2018-09-09T22:40:37.148Z,99.90
2018-09-09T22:45:20.863Z,99.90
2018-09-09T22:50:04.804Z,99.90
2018-09-09T22:54:48.653Z,99.90
2018-09-09T22:59:32.415Z,99.90
2018-09-09T23:04:16.309Z,99.90
2018-09-09T23:09:00.199Z,99.90
2018-09-09T23:13:44.073Z,99.90
2018-09-09T23:18:28.982Z,99.90
2018-09-09T23:23:12.806Z,99.90
2018-09-09T23:27:56.753Z,99.90
2018-09-09T23:32:40.665Z,99.90
2018-09-09T23:37:24.498Z,99.90
2018-09-09T23:42:08.377Z,99.90
2018-09-09T23:46:52.219Z,99.90
2018-09-09T23:51:36.096Z,99.90
2018-09-09T23:56:19.856Z,99.90
